Time;durP1;ratioP1;P1;durP2;ratioP2;P2;SDS_P1;SDS_P2;PMS_P1;PMS_P2;Temp;Humidity;BMP_temperature;BMP_pressure;BME280_temperature;BME280_humidity;BME280_pressure;Samples;Min_cycle;Max_cycle;Signal;HPM_P1;HPM_P2
2023/01/10 00:00:10;;;;;;;9.00;1.33;;;6.60;86.90;;;;;;5013637;28;20469;-78
2023/01/10 00:02:37;;;;;;;8.50;1.20;;;6.60;86.70;;;;;;4989847;28;20050;-78
2023/01/10 00:05:05;;;;;;;11.23;1.58;;;6.60;86.60;;;;;;4989308;28;20523;-78
2023/01/10 00:07:32;;;;;;;10.68;1.38;;;6.60;86.50;;;;;;5007503;28;20070;-78
2023/01/10 00:09:59;;;;;;;11.93;1.50;;;6.60;86.40;;;;;;4998767;28;20148;-78
2023/01/10 00:15:12;;;;;;;10.50;1.30;;;6.60;86.20;;;;;;4995657;28;20086;-78
2023/01/10 00:17:39;;;;;;;8.40;1.00;;;6.60;86.00;;;;;;4979753;28;20176;-77
2023/01/10 00:20:07;;;;;;;10.25;1.23;;;6.50;85.90;;;;;;4987789;28;20061;-78
2023/01/10 00:22:34;;;;;;;10.47;1.07;;;6.50;85.90;;;;;;4997049;28;20078;-78
2023/01/10 00:25:01;;;;;;;8.13;1.25;;;6.50;85.90;;;;;;4987665;28;20055;-78
2023/01/10 00:27:28;;;;;;;7.88;1.00;;;6.50;85.90;;;;;;4970097;28;20051;-78
2023/01/10 00:29:57;;;;;;;11.07;1.77;;;6.50;85.80;;;;;;4986689;28;20061;-78
2023/01/10 00:32:25;;;;;;;10.43;1.33;;;6.50;85.80;;;;;;4999172;28;20058;-78
2023/01/10 00:34:52;;;;;;;12.10;1.63;;;6.40;85.90;;;;;;5004972;28;20050;-79
2023/01/10 00:37:19;;;;;;;9.30;1.65;;;6.40;85.90;;;;;;5024911;28;20086;-78
2023/01/10 00:39:46;;;;;;;14.13;1.30;;;6.50;85.90;;;;;;5007771;28;20477;-78
2023/01/10 00:44:58;;;;;;;11.43;1.60;;;6.50;85.90;;;;;;5007938;28;20051;-79
2023/01/10 00:47:27;;;;;;;8.63;1.07;;;6.50;85.90;;;;;;4995844;28;20072;-78
2023/01/10 00:49:54;;;;;;;9.52;1.40;;;6.50;85.80;;;;;;5001140;28;20058;-77
2023/01/10 00:52:21;;;;;;;13.38;2.00;;;6.50;85.90;;;;;;5003409;28;20050;-77
2023/01/10 00:54:48;;;;;;;15.40;1.60;;;6.40;85.90;;;;;;5009449;28;20133;-78
2023/01/10 00:57:15;;;;;;;12.15;1.95;;;6.50;86.00;;;;;;4998891;28;21065;-77
2023/01/10 00:59:42;;;;;;;16.00;2.07;;;6.50;86.00;;;;;;5000185;28;20154;-78
2023/01/10 01:02:09;;;;;;;12.23;1.80;;;6.50;86.00;;;;;;5000304;28;20063;-78
2023/01/10 01:04:37;;;;;;;13.40;1.95;;;6.50;85.90;;;;;;5015753;28;20487;-77
2023/01/10 01:07:04;;;;;;;10.40;1.77;;;6.50;85.90;;;;;;4996882;28;20058;-78
2023/01/10 01:09:31;;;;;;;14.73;2.10;;;6.50;86.00;;;;;;4996108;28;20129;-78
2023/01/10 01:11:59;;;;;;;13.43;1.97;;;6.50;86.00;;;;;;4996395;28;20051;-78
2023/01/10 01:14:26;;;;;;;15.55;2.10;;;6.50;85.90;;;;;;4999127;28;20548;-78
2023/01/10 01:16:54;;;;;;;12.48;1.50;;;6.50;85.80;;;;;;5002832;28;20133;-78
2023/01/10 01:19:21;;;;;;;11.77;1.60;;;6.50;85.90;;;;;;5014180;28;20521;-78
2023/01/10 01:21:49;;;;;;;10.15;1.40;;;6.50;85.90;;;;;;4998221;28;20061;-78
2023/01/10 01:24:16;;;;;;;12.87;1.77;;;6.50;86.00;;;;;;4998674;28;20047;-78
2023/01/10 01:26:44;;;;;;;15.68;1.65;;;6.50;86.00;;;;;;4985919;28;20570;-78
2023/01/10 01:29:11;;;;;;;10.00;1.92;;;6.50;85.90;;;;;;4994812;28;20767;-78
2023/01/10 01:31:38;;;;;;;8.57;1.27;;;6.60;85.60;;;;;;4993256;28;20074;-78
2023/01/10 01:34:05;;;;;;;12.20;1.77;;;6.60;85.40;;;;;;4993923;28;20065;-77
2023/01/10 01:36:32;;;;;;;14.27;1.57;;;6.60;85.30;;;;;;5006097;28;20073;-79
2023/01/10 01:39:02;;;;;;;12.40;1.45;;;6.50;85.20;;;;;;4995238;28;20138;-78
2023/01/10 01:44:16;;;;;;;9.30;1.80;;;6.50;85.20;;;;;;4981009;28;20496;-77
2023/01/10 01:46:46;;;;;;;10.15;1.38;;;6.50;85.30;;;;;;5003497;28;20050;-78
2023/01/10 01:49:19;;;;;;;13.00;1.33;;;6.50;85.30;;;;;;4987406;28;20059;-77
2023/01/10 01:51:47;;;;;;;13.88;2.00;;;6.50;85.40;;;;;;5002457;28;20570;-78
2023/01/10 01:54:17;;;;;;;11.63;1.52;;;6.50;85.40;;;;;;4990422;28;20520;-78
2023/01/10 01:56:50;;;;;;;9.32;1.40;;;6.50;85.50;;;;;;5005622;28;20133;-78
2023/01/10 01:59:22;;;;;;;14.90;1.98;;;6.50;85.50;;;;;;4988172;28;20109;-78
2023/01/10 02:01:52;;;;;;;11.87;1.90;;;6.50;85.50;;;;;;4998566;28;20050;-77
2023/01/10 02:04:22;;;;;;;13.88;2.13;;;6.50;85.50;;;;;;5006944;28;20125;-78
2023/01/10 02:06:52;;;;;;;12.27;1.90;;;6.50;85.50;;;;;;5004953;28;20050;-78
2023/01/10 02:09:25;;;;;;;12.10;1.75;;;6.50;85.40;;;;;;4993722;28;20054;-77
2023/01/10 02:11:52;;;;;;;11.70;1.90;;;6.50;85.30;;;;;;4995975;28;20125;-77
2023/01/10 02:14:21;;;;;;;10.97;1.73;;;6.50;85.20;;;;;;4993848;28;20087;-78
2023/01/10 02:16:48;;;;;;;10.48;1.70;;;6.50;85.30;;;;;;4995044;28;20077;-78
2023/01/10 02:19:24;;;;;;;10.45;1.60;;;6.50;85.10;;;;;;4988559;28;20148;-78
2023/01/10 02:22:20;;;;;;;11.25;1.58;;;6.50;85.20;;;;;;4989100;28;20913;-77
2023/01/10 02:25:18;;;;;;;9.27;1.48;;;6.40;85.10;;;;;;4996084;28;20157;-78
2023/01/10 02:28:03;;;;;;;10.40;1.53;;;6.40;85.10;;;;;;4989194;28;20051;-78
2023/01/10 02:31:07;;;;;;;9.60;1.58;;;6.40;85.10;;;;;;5007588;28;20046;-78
2023/01/10 02:33:41;;;;;;;12.00;1.83;;;6.40;85.00;;;;;;4999169;28;20051;-78
2023/01/10 02:36:27;;;;;;;7.97;1.20;;;6.30;85.00;;;;;;5008200;28;20098;-78
2023/01/10 02:39:02;;;;;;;10.80;1.30;;;6.30;84.90;;;;;;4994623;28;20142;-78
2023/01/10 02:41:42;;;;;;;16.87;1.87;;;6.30;84.80;;;;;;4996802;28;20138;-77
2023/01/10 02:44:14;;;;;;;10.70;1.80;;;6.30;84.70;;;;;;5018320;28;20054;-78
2023/01/10 02:46:43;;;;;;;12.25;1.42;;;6.30;84.80;;;;;;4995051;28;20047;-78
2023/01/10 02:49:12;;;;;;;11.63;1.88;;;6.30;84.90;;;;;;4988087;28;20051;-78
2023/01/10 02:51:39;;;;;;;10.55;1.50;;;6.20;84.90;;;;;;4992814;28;20051;-78
2023/01/10 02:54:08;;;;;;;12.67;1.80;;;6.20;84.90;;;;;;4992435;28;20157;-79
2023/01/10 02:57:10;;;;;;;11.73;2.13;;;6.20;84.80;;;;;;4986488;28;20051;-77
2023/01/10 03:00:02;;;;;;;9.45;1.67;;;6.20;84.70;;;;;;4989250;28;20083;-78
2023/01/10 03:02:45;;;;;;;10.95;1.90;;;6.20;84.80;;;;;;4996767;28;20130;-77
2023/01/10 03:05:24;;;;;;;9.57;1.50;;;6.20;85.00;;;;;;4990781;28;20050;-78
2023/01/10 03:07:59;;;;;;;11.47;1.70;;;6.20;85.20;;;;;;4993713;28;20848;-78
2023/01/10 03:10:32;;;;;;;12.05;2.22;;;6.20;85.40;;;;;;4991311;28;20125;-78
2023/01/10 03:13:12;;;;;;;12.35;2.22;;;6.20;85.70;;;;;;5003402;28;20062;-79
2023/01/10 03:15:41;;;;;;;9.20;2.10;;;6.20;85.80;;;;;;4995850;28;20054;-78
2023/01/10 03:18:13;;;;;;;6.82;1.40;;;6.20;85.90;;;;;;4992565;28;20905;-78
2023/01/10 03:20:44;;;;;;;11.40;2.03;;;6.20;86.10;;;;;;4996423;28;20080;-78
2023/01/10 03:23:13;;;;;;;13.02;2.05;;;6.20;86.20;;;;;;5000412;28;20568;-78
2023/01/10 03:25:43;;;;;;;12.68;2.13;;;6.20;86.50;;;;;;5009086;28;20129;-77
2023/01/10 03:28:14;;;;;;;14.82;2.20;;;6.30;86.60;;;;;;4999950;28;20158;-77
2023/01/10 03:30:46;;;;;;;13.80;2.33;;;6.30;86.70;;;;;;4994496;28;20124;-78
2023/01/10 03:33:18;;;;;;;10.77;2.10;;;6.30;86.70;;;;;;4999180;28;20922;-77
2023/01/10 03:35:59;;;;;;;12.32;1.88;;;6.30;86.60;;;;;;4982169;28;20201;-78
2023/01/10 03:38:33;;;;;;;8.23;1.77;;;6.30;86.50;;;;;;4988684;28;20675;-78
2023/01/10 03:41:05;;;;;;;13.32;2.30;;;6.30;86.50;;;;;;4994948;28;20175;-78
2023/01/10 03:46:36;;;;;;;8.87;1.30;;;6.30;86.40;;;;;;4991554;28;20123;-77
2023/01/10 03:49:06;;;;;;;12.40;1.90;;;6.30;86.50;;;;;;4993971;28;20432;-78
2023/01/10 03:51:37;;;;;;;14.88;2.10;;;6.30;86.60;;;;;;4999119;28;20058;-78
2023/01/10 03:54:05;;;;;;;9.07;1.30;;;6.30;86.70;;;;;;4992653;28;20142;-79
2023/01/10 03:56:42;;;;;;;13.77;2.10;;;6.30;86.70;;;;;;4996512;28;20054;-78
2023/01/10 03:59:09;;;;;;;14.03;1.90;;;6.30;86.90;;;;;;4989327;28;20055;-78
2023/01/10 04:01:37;;;;;;;14.07;1.63;;;6.30;87.10;;;;;;4996045;28;20058;-77
2023/01/10 04:04:04;;;;;;;12.23;2.33;;;6.30;87.20;;;;;;4996243;28;20249;-77
2023/01/10 04:06:31;;;;;;;12.75;1.95;;;6.30;87.20;;;;;;4999937;28;20113;-78
2023/01/10 04:08:59;;;;;;;11.45;1.80;;;6.30;87.40;;;;;;4988159;28;20086;-78
2023/01/10 04:11:27;;;;;;;9.40;1.70;;;6.40;87.70;;;;;;4993970;28;20054;-77
2023/01/10 04:13:54;;;;;;;7.63;1.60;;;6.30;87.70;;;;;;4994675;28;20059;-77
2023/01/10 04:16:21;;;;;;;11.05;2.08;;;6.40;87.80;;;;;;4996517;28;20086;-77
2023/01/10 04:18:48;;;;;;;11.88;2.20;;;6.40;88.00;;;;;;4987832;28;20058;-77
2023/01/10 04:21:15;;;;;;;11.23;2.10;;;6.40;88.20;;;;;;4988355;28;20065;-78
2023/01/10 04:23:43;;;;;;;9.37;1.87;;;6.40;88.20;;;;;;4990945;28;20140;-78
2023/01/10 04:26:12;;;;;;;11.82;1.98;;;6.40;88.40;;;;;;5000960;28;20465;-77
2023/01/10 04:28:39;;;;;;;12.20;2.38;;;6.50;88.60;;;;;;5003503;28;20047;-80
2023/01/10 04:31:06;;;;;;;11.25;2.05;;;6.50;88.60;;;;;;4996816;28;20074;-77
2023/01/10 04:33:33;;;;;;;10.25;2.17;;;6.50;88.80;;;;;;5002594;28;20483;-77
2023/01/10 04:36:00;;;;;;;14.10;2.00;;;6.50;88.90;;;;;;5004284;28;20058;-77
2023/01/10 04:38:27;;;;;;;12.73;1.88;;;6.50;88.80;;;;;;4987791;28;20047;-78
2023/01/10 04:40:56;;;;;;;10.40;1.33;;;6.50;88.90;;;;;;4992330;28;20477;-77
2023/01/10 04:43:25;;;;;;;10.57;2.13;;;6.50;88.90;;;;;;5008020;28;20576;-78
2023/01/10 04:45:52;;;;;;;10.35;2.10;;;6.50;89.10;;;;;;4995622;28;20050;-78
2023/01/10 04:48:19;;;;;;;10.00;1.80;;;6.50;89.10;;;;;;5006015;28;20050;-77
2023/01/10 04:50:50;;;;;;;14.23;2.30;;;6.60;89.10;;;;;;5001315;28;20591;-77
2023/01/10 04:53:17;;;;;;;12.75;2.00;;;6.60;89.20;;;;;;5003697;28;20062;-78
2023/01/10 04:55:44;;;;;;;14.27;2.42;;;6.60;89.10;;;;;;4993810;28;20047;-77
2023/01/10 04:58:11;;;;;;;12.70;2.10;;;6.60;89.00;;;;;;4992233;28;20125;-78
2023/01/10 05:00:40;;;;;;;13.80;2.13;;;6.60;88.90;;;;;;4995188;28;20149;-78
2023/01/10 05:03:08;;;;;;;12.88;2.42;;;6.60;88.90;;;;;;4996428;28;20068;-78
2023/01/10 05:05:35;;;;;;;9.75;1.73;;;6.60;88.80;;;;;;4995845;28;20046;-79
2023/01/10 05:08:02;;;;;;;14.02;2.20;;;6.60;88.90;;;;;;4994899;28;20055;-78
2023/01/10 05:10:29;;;;;;;16.05;1.77;;;6.60;88.90;;;;;;4995221;28;20148;-77
2023/01/10 05:12:56;;;;;;;10.63;1.50;;;6.60;88.90;;;;;;4999632;28;20137;-77
2023/01/10 05:15:23;;;;;;;16.20;2.25;;;6.60;88.90;;;;;;4998646;28;20054;-77
2023/01/10 05:17:57;;;;;;;12.98;1.95;;;6.60;88.90;;;;;;4997046;28;20142;-77
2023/01/10 05:20:24;;;;;;;12.38;1.98;;;6.60;88.90;;;;;;4991157;28;20140;-78
2023/01/10 05:22:52;;;;;;;13.27;1.92;;;6.60;88.70;;;;;;4998126;28;20129;-77
2023/01/10 05:25:19;;;;;;;13.43;1.97;;;6.60;88.70;;;;;;4997895;28;20146;-78
2023/01/10 05:27:46;;;;;;;15.98;2.10;;;6.60;88.70;;;;;;4993217;28;20079;-77
2023/01/10 05:30:14;;;;;;;13.43;2.25;;;6.60;88.60;;;;;;4969151;28;20073;-77
2023/01/10 05:32:41;;;;;;;13.32;2.25;;;6.60;88.70;;;;;;4968171;28;20057;-77
2023/01/10 05:35:10;;;;;;;11.80;2.20;;;6.60;88.70;;;;;;4996167;28;20114;-78
2023/01/10 05:37:37;;;;;;;12.87;2.07;;;6.60;88.60;;;;;;5007194;28;20134;-77
2023/01/10 05:40:05;;;;;;;12.27;2.08;;;6.50;88.70;;;;;;5023837;28;20074;-77
2023/01/10 05:42:33;;;;;;;12.85;2.42;;;6.60;88.70;;;;;;4996886;28;20050;-78
2023/01/10 05:45:00;;;;;;;12.98;2.00;;;6.60;88.80;;;;;;4989338;28;20057;-77
2023/01/10 05:47:27;;;;;;;12.57;2.22;;;6.60;88.80;;;;;;4997477;28;20082;-77
2023/01/10 05:49:54;;;;;;;13.87;2.27;;;6.50;88.80;;;;;;5017729;28;20078;-78
2023/01/10 05:52:22;;;;;;;15.70;2.63;;;6.50;88.90;;;;;;4998331;28;20059;-77
2023/01/10 05:54:49;;;;;;;14.77;2.72;;;6.50;88.90;;;;;;5006953;28;20046;-77
2023/01/10 05:57:17;;;;;;;13.73;2.15;;;6.50;89.00;;;;;;4989134;28;20071;-78
2023/01/10 05:59:45;;;;;;;16.45;2.30;;;6.50;89.00;;;;;;4986749;28;20051;-77
2023/01/10 06:02:12;;;;;;;17.80;2.10;;;6.60;89.10;;;;;;4991757;28;20495;-77
2023/01/10 06:04:39;;;;;;;12.32;2.70;;;6.60;89.10;;;;;;4999922;28;20120;-77
2023/01/10 06:07:06;;;;;;;17.15;2.70;;;6.50;89.00;;;;;;4992783;28;20051;-78
2023/01/10 06:09:35;;;;;;;13.65;1.85;;;6.50;89.00;;;;;;4995471;28;20501;-79
2023/01/10 06:12:02;;;;;;;15.50;2.28;;;6.50;89.00;;;;;;5011133;28;20891;-78
2023/01/10 06:14:29;;;;;;;14.00;2.70;;;6.50;89.00;;;;;;4990373;28;20055;-78
2023/01/10 06:16:56;;;;;;;18.08;2.70;;;6.50;89.10;;;;;;5014436;28;20533;-78
2023/01/10 06:19:23;;;;;;;13.68;2.13;;;6.50;89.10;;;;;;4992857;28;20540;-78
2023/01/10 06:21:50;;;;;;;12.60;1.63;;;6.50;89.00;;;;;;4998022;28;20477;-78
2023/01/10 06:24:17;;;;;;;8.40;1.13;;;6.50;88.90;;;;;;4995319;28;20556;-78
2023/01/10 06:26:45;;;;;;;8.50;1.93;;;6.50;88.90;;;;;;5011057;28;20081;-78
2023/01/10 06:29:13;;;;;;;10.32;1.77;;;6.50;89.10;;;;;;4996733;28;20136;-78
2023/01/10 06:31:40;;;;;;;11.00;2.25;;;6.50;89.00;;;;;;4992965;28;20138;-78
2023/01/10 06:34:07;;;;;;;11.82;1.90;;;6.50;88.90;;;;;;4997198;28;20070;-78
2023/01/10 06:36:34;;;;;;;8.75;1.80;;;6.50;88.90;;;;;;4998552;28;20085;-77
2023/01/10 06:39:01;;;;;;;16.43;2.57;;;6.50;89.00;;;;;;4989878;28;20059;-78
2023/01/10 06:41:28;;;;;;;9.43;1.80;;;6.50;89.00;;;;;;4988176;28;20058;-78
2023/01/10 06:44:00;;;;;;;10.35;1.83;;;6.50;89.00;;;;;;4999380;28;20710;-78
2023/01/10 06:46:27;;;;;;;10.27;1.70;;;6.50;89.00;;;;;;5002471;28;20058;-77
2023/01/10 06:48:54;;;;;;;14.73;1.95;;;6.50;89.00;;;;;;5000945;28;20721;-78
2023/01/10 06:51:21;;;;;;;13.37;2.30;;;6.50;89.10;;;;;;4992013;28;20083;-78
2023/01/10 06:53:48;;;;;;;13.02;2.10;;;6.60;89.10;;;;;;4997843;28;20477;-78
2023/01/10 06:56:15;;;;;;;13.45;1.85;;;6.60;89.10;;;;;;4999899;28;20051;-78
2023/01/10 06:58:42;;;;;;;13.35;2.03;;;6.60;89.10;;;;;;4995964;28;20513;-78
2023/01/10 07:01:15;;;;;;;9.77;2.03;;;6.60;88.90;;;;;;4991129;28;20059;-77
2023/01/10 07:03:43;;;;;;;11.53;1.90;;;6.50;88.70;;;;;;4999586;28;20126;-78
2023/01/10 07:06:10;;;;;;;10.90;2.28;;;6.60;88.60;;;;;;5000121;28;20055;-78
2023/01/10 07:08:38;;;;;;;15.07;2.65;;;6.50;88.40;;;;;;5002510;28;20057;-78
2023/01/10 07:11:05;;;;;;;12.45;2.70;;;6.50;88.30;;;;;;5001484;28;20055;-78
2023/01/10 07:13:32;;;;;;;11.77;2.53;;;6.50;88.10;;;;;;5002255;28;20489;-78
2023/01/10 07:16:03;;;;;;;8.97;2.00;;;6.50;88.00;;;;;;4997512;28;20440;-78
2023/01/10 07:18:31;;;;;;;10.90;2.20;;;6.40;87.90;;;;;;4998202;28;20080;-78
2023/01/10 07:20:59;;;;;;;13.48;2.83;;;6.40;87.90;;;;;;4996480;28;20047;-78
2023/01/10 07:23:26;;;;;;;12.98;2.25;;;6.40;88.00;;;;;;4995104;28;20054;-77
2023/01/10 07:25:53;;;;;;;16.88;2.40;;;6.40;88.00;;;;;;5000943;28;20567;-78
2023/01/10 07:28:20;;;;;;;19.07;3.10;;;6.40;88.10;;;;;;4995616;28;20062;-78
2023/01/10 07:30:48;;;;;;;11.73;2.75;;;6.30;88.20;;;;;;4996395;28;20121;-78
2023/01/10 07:33:15;;;;;;;14.00;2.47;;;6.30;88.20;;;;;;4999328;28;21058;-78
2023/01/10 07:35:43;;;;;;;16.00;2.15;;;6.30;88.40;;;;;;4995881;28;20137;-78
2023/01/10 07:38:10;;;;;;;14.95;2.05;;;6.30;88.40;;;;;;4998922;28;20258;-78
2023/01/10 07:40:37;;;;;;;13.23;2.17;;;6.30;88.40;;;;;;5020988;28;20170;-78
2023/01/10 07:43:05;;;;;;;15.88;2.50;;;6.30;88.50;;;;;;4998986;28;20056;-77
2023/01/10 07:45:32;;;;;;;13.10;2.35;;;6.30;88.50;;;;;;4997129;28;20489;-78
2023/01/10 07:48:00;;;;;;;12.93;2.83;;;6.30;88.60;;;;;;4997158;28;20170;-77
2023/01/10 07:50:29;;;;;;;17.00;3.13;;;6.20;88.70;;;;;;5002139;28;20133;-78
2023/01/10 07:52:59;;;;;;;12.17;2.30;;;6.20;88.60;;;;;;4997705;28;20997;-78
2023/01/10 07:55:26;;;;;;;12.52;2.78;;;6.20;88.60;;;;;;5005139;28;20062;-78
2023/01/10 07:57:54;;;;;;;13.05;3.08;;;6.20;88.70;;;;;;4996618;28;20058;-78
2023/01/10 08:00:21;;;;;;;11.52;2.28;;;6.20;88.70;;;;;;4983239;28;20051;-78
2023/01/10 08:02:53;;;;;;;18.65;2.72;;;6.20;88.80;;;;;;4986725;28;20061;-78
2023/01/10 08:05:45;;;;;;;11.90;2.23;;;6.20;88.90;;;;;;4991971;28;20058;-78
2023/01/10 08:08:15;;;;;;;14.63;2.30;;;6.20;88.90;;;;;;4989917;28;20491;-78
2023/01/10 08:10:42;;;;;;;11.55;2.20;;;6.20;89.00;;;;;;4977180;28;20060;-78
2023/01/10 08:13:09;;;;;;;15.20;2.70;;;6.20;89.00;;;;;;4981907;28;20066;-77
2023/01/10 08:15:36;;;;;;;11.75;2.50;;;6.20;89.00;;;;;;5007433;28;20078;-78
2023/01/10 08:18:03;;;;;;;15.53;2.20;;;6.20;89.00;;;;;;4997098;28;20133;-77
2023/01/10 08:20:31;;;;;;;16.50;2.85;;;6.20;89.00;;;;;;4983792;28;20062;-76
2023/01/10 08:22:58;;;;;;;17.88;3.40;;;6.20;89.00;;;;;;4981957;28;20998;-77
2023/01/10 08:25:26;;;;;;;16.45;3.15;;;6.20;89.00;;;;;;4981646;28;20066;-79
2023/01/10 08:27:54;;;;;;;17.63;2.95;;;6.30;89.00;;;;;;4988934;28;20150;-77
2023/01/10 08:30:22;;;;;;;16.50;2.33;;;6.30;89.10;;;;;;4984800;28;20057;-77
2023/01/10 08:32:49;;;;;;;17.70;3.00;;;6.30;89.10;;;;;;4977720;28;20094;-77
2023/01/10 08:35:17;;;;;;;17.23;3.25;;;6.30;89.10;;;;;;5001669;28;20055;-77
2023/01/10 08:37:44;;;;;;;18.20;3.42;;;6.30;89.10;;;;;;4988677;28;20054;-77
2023/01/10 08:40:12;;;;;;;13.98;2.60;;;6.20;88.90;;;;;;4988944;28;20136;-77
2023/01/10 08:42:45;;;;;;;18.63;2.70;;;6.30;88.80;;;;;;4991065;28;20192;-78
2023/01/10 08:45:12;;;;;;;16.00;3.10;;;6.30;88.70;;;;;;5065041;22;20144;-78
2023/01/10 08:47:39;;;;;;;17.15;3.00;;;6.30;88.70;;;;;;5047205;28;20203;-77
2023/01/10 08:50:06;;;;;;;17.40;2.38;;;6.30;88.50;;;;;;5046057;28;20525;-77
2023/01/10 08:52:33;;;;;;;16.23;3.08;;;6.30;88.30;;;;;;5050713;28;20104;-79
2023/01/10 08:55:00;;;;;;;18.57;2.63;;;6.30;88.30;;;;;;5042882;28;20056;-78
2023/01/10 08:57:27;;;;;;;14.48;3.00;;;6.20;88.30;;;;;;5046613;28;20100;-77
2023/01/10 08:59:56;;;;;;;11.77;1.77;;;6.20;88.40;;;;;;5046605;28;20580;-79
2023/01/10 09:02:23;;;;;;;18.10;2.95;;;6.20;88.50;;;;;;5044608;28;20068;-78
2023/01/10 09:04:49;;;;;;;13.30;1.85;;;6.20;88.60;;;;;;5043377;28;20188;-78
2023/01/10 09:07:16;;;;;;;11.87;2.67;;;6.20;88.60;;;;;;5049965;28;20050;-78
2023/01/10 09:09:43;;;;;;;13.75;2.63;;;6.20;88.70;;;;;;5062999;28;20053;-78
2023/01/10 09:14:51;;;;;;;17.55;2.80;;;6.20;88.80;;;;;;5026859;28;20041;-78
2023/01/10 09:17:19;;;;;;;15.73;2.97;;;6.20;88.90;;;;;;5057661;28;20061;-79
2023/01/10 09:19:46;;;;;;;17.63;3.03;;;6.20;89.00;;;;;;5047180;28;20050;-78
2023/01/10 09:22:13;;;;;;;15.02;2.35;;;6.20;89.00;;;;;;5048296;28;20163;-79
2023/01/10 09:24:42;;;;;;;19.70;2.65;;;6.30;89.20;;;;;;5044352;28;20490;-77
2023/01/10 09:27:10;;;;;;;13.98;3.00;;;6.30;89.20;;;;;;5046246;28;20586;-79
2023/01/10 09:29:37;;;;;;;16.50;2.85;;;6.30;89.20;;;;;;5046811;28;20060;-79
2023/01/10 09:32:04;;;;;;;18.30;2.40;;;6.40;89.40;;;;;;5044962;28;20312;-78
2023/01/10 09:34:33;;;;;;;13.23;2.42;;;6.40;89.30;;;;;;5027587;28;20046;-80
2023/01/10 09:37:00;;;;;;;13.90;3.20;;;6.40;89.30;;;;;;5044168;28;20144;-79
2023/01/10 09:39:28;;;;;;;15.10;2.83;;;6.40;89.40;;;;;;5049309;28;20577;-78
2023/01/10 09:42:14;;;;;;;17.23;2.78;;;6.50;89.50;;;;;;5046940;28;20049;-79
2023/01/10 09:44:49;;;;;;;18.33;3.17;;;6.50;89.50;;;;;;5045116;28;20132;-79
2023/01/10 09:47:24;;;;;;;18.13;2.88;;;6.50;89.50;;;;;;5029605;28;20081;-78
2023/01/10 09:50:04;;;;;;;16.40;3.10;;;6.60;89.50;;;;;;5046077;28;20538;-78
2023/01/10 09:52:34;;;;;;;16.38;3.20;;;6.70;89.40;;;;;;5046887;28;20220;-79
2023/01/10 09:55:14;;;;;;;12.40;2.15;;;6.70;89.20;;;;;;5047485;28;20066;-80
2023/01/10 09:57:41;;;;;;;16.33;2.77;;;6.70;89.20;;;;;;5041829;28;20053;-77
2023/01/10 10:00:15;;;;;;;15.40;2.50;;;6.70;89.10;;;;;;5045406;28;20053;-79
2023/01/10 10:02:47;;;;;;;15.13;2.85;;;6.70;89.00;;;;;;5055375;28;20100;-77
2023/01/10 10:05:19;;;;;;;15.90;2.40;;;6.80;88.90;;;;;;5046146;28;20132;-79
2023/01/10 10:07:52;;;;;;;19.75;3.45;;;6.80;88.80;;;;;;5048739;28;20077;-79
2023/01/10 10:10:23;;;;;;;18.83;3.23;;;6.90;88.70;;;;;;5054224;28;20077;-75
2023/01/10 10:13:04;;;;;;;18.27;3.72;;;6.90;88.70;;;;;;5046447;28;20045;-74
2023/01/10 10:15:41;;;;;;;18.90;3.55;;;6.90;88.60;;;;;;5046402;28;20119;-77
2023/01/10 10:18:17;;;;;;;17.17;3.58;;;7.00;88.50;;;;;;5054234;28;20057;-78
2023/01/10 10:20:57;;;;;;;18.23;3.60;;;7.00;88.40;;;;;;5056072;28;20566;-77
2023/01/10 10:23:37;;;;;;;20.20;4.80;;;7.00;88.40;;;;;;5060302;28;20648;-77
2023/01/10 10:26:12;;;;;;;18.52;4.50;;;7.00;88.50;;;;;;5055807;28;20681;-77
2023/01/10 10:28:58;;;;;;;15.75;4.32;;;7.00;88.60;;;;;;5046850;28;20504;-77
2023/01/10 10:31:37;;;;;;;20.67;4.40;;;7.00;88.60;;;;;;5060359;28;20056;-77
2023/01/10 10:34:12;;;;;;;21.63;5.82;;;7.00;88.50;;;;;;5061481;28;20053;-77
2023/01/10 10:36:45;;;;;;;18.77;5.60;;;7.00;88.40;;;;;;5054329;28;20419;-77
2023/01/10 10:39:16;;;;;;;17.92;5.18;;;7.10;88.10;;;;;;5058932;28;20876;-78
2023/01/10 10:41:46;;;;;;;21.45;6.07;;;7.00;88.00;;;;;;5041411;28;20446;-77
2023/01/10 10:44:28;;;;;;;19.35;6.15;;;7.00;87.90;;;;;;5063728;28;20512;-76
2023/01/10 10:46:58;;;;;;;19.73;5.88;;;7.10;87.60;;;;;;5057521;28;20515;-77
2023/01/10 10:49:37;;;;;;;24.90;6.47;;;7.10;87.50;;;;;;5062017;28;20049;-78
2023/01/10 10:52:15;;;;;;;18.50;6.50;;;7.10;87.60;;;;;;5043919;28;20549;-77
2023/01/10 10:54:42;;;;;;;17.63;5.70;;;7.10;87.60;;;;;;5060379;28;20582;-77
2023/01/10 10:57:11;;;;;;;20.83;6.68;;;7.10;87.50;;;;;;5052386;28;20146;-76
2023/01/10 10:59:38;;;;;;;20.27;6.65;;;7.10;87.20;;;;;;5044205;28;20049;-77
2023/01/10 11:02:21;;;;;;;25.17;7.10;;;7.10;87.20;;;;;;5059485;28;20160;-77
2023/01/10 11:04:49;;;;;;;22.48;6.65;;;7.10;87.10;;;;;;5042003;28;20532;-76
2023/01/10 11:07:19;;;;;;;21.23;6.90;;;7.10;87.10;;;;;;5051720;28;20050;-76
2023/01/10 11:09:50;;;;;;;19.20;6.10;;;7.10;87.10;;;;;;5065435;28;20059;-76
2023/01/10 11:12:20;;;;;;;22.05;6.47;;;7.10;86.90;;;;;;5064501;28;20059;-76
2023/01/10 11:14:50;;;;;;;20.20;5.93;;;7.10;86.80;;;;;;5061611;28;20085;-76
2023/01/10 11:17:25;;;;;;;21.83;5.68;;;7.10;86.60;;;;;;5062012;28;20049;-76
2023/01/10 11:19:57;;;;;;;20.58;5.10;;;7.20;86.40;;;;;;5047997;28;20057;-76
2023/01/10 11:22:27;;;;;;;20.42;5.47;;;7.10;86.60;;;;;;5051600;28;20522;-76
2023/01/10 11:24:56;;;;;;;17.95;4.60;;;7.10;86.60;;;;;;5051803;28;20064;-76
2023/01/10 11:27:27;;;;;;;17.17;4.37;;;7.10;86.60;;;;;;5052396;28;20144;-76
2023/01/10 11:29:57;;;;;;;24.40;5.43;;;7.10;86.30;;;;;;5046796;28;20052;-77
2023/01/10 11:32:32;;;;;;;19.10;4.25;;;7.10;86.30;;;;;;5047786;28;20563;-77
2023/01/10 11:35:01;;;;;;;16.75;4.55;;;7.10;86.00;;;;;;5048343;28;20049;-77
2023/01/10 11:37:31;;;;;;;15.43;3.65;;;7.10;85.90;;;;;;5048883;28;20050;-77
2023/01/10 11:40:27;;;;;;;15.33;3.40;;;7.10;86.00;;;;;;5043918;28;20045;-77
2023/01/10 11:42:55;;;;;;;21.80;5.05;;;7.10;86.00;;;;;;5037714;28;20045;-77
2023/01/10 11:45:25;;;;;;;16.40;3.40;;;7.10;85.70;;;;;;5057520;28;20061;-76
2023/01/10 11:47:55;;;;;;;19.63;4.22;;;7.20;85.40;;;;;;5069169;28;20060;-77
2023/01/10 11:50:24;;;;;;;23.52;4.15;;;7.10;85.50;;;;;;5034120;28;20053;-75
2023/01/10 11:52:53;;;;;;;12.43;3.03;;;7.10;85.40;;;;;;5047816;28;20061;-75
2023/01/10 11:55:22;;;;;;;20.63;3.83;;;7.20;85.40;;;;;;5047846;28;20115;-75
2023/01/10 11:57:58;;;;;;;14.60;3.50;;;7.20;85.30;;;;;;5045867;28;20316;-74
2023/01/10 12:00:33;;;;;;;21.27;4.25;;;7.20;85.30;;;;;;5045954;28;20066;-75
2023/01/10 12:03:01;;;;;;;15.85;3.22;;;7.20;85.40;;;;;;5047640;28;20057;-75
2023/01/10 12:05:28;;;;;;;19.03;3.67;;;7.20;85.10;;;;;;5051435;28;20057;-74
2023/01/10 12:07:58;;;;;;;20.52;3.28;;;7.20;85.10;;;;;;5052120;28;20049;-74
2023/01/10 12:10:27;;;;;;;22.35;3.85;;;7.10;85.20;;;;;;5054856;28;20132;-74
2023/01/10 12:12:56;;;;;;;16.58;3.03;;;7.20;85.20;;;;;;5045454;28;20041;-75
2023/01/10 12:15:26;;;;;;;22.25;3.95;;;7.20;85.20;;;;;;5029927;28;20234;-75
2023/01/10 12:17:55;;;;;;;14.70;2.90;;;7.20;85.30;;;;;;5045601;28;20037;-75
2023/01/10 12:20:23;;;;;;;14.13;3.55;;;7.20;85.00;;;;;;5028727;28;20046;-74
2023/01/10 12:22:54;;;;;;;13.38;3.38;;;7.20;85.00;;;;;;5047523;28;20049;-74
2023/01/10 12:25:30;;;;;;;10.25;2.60;;;7.20;85.10;;;;;;5046798;28;20586;-75
2023/01/10 12:27:58;;;;;;;10.27;2.78;;;7.20;85.20;;;;;;5049278;28;20081;-75
2023/01/10 12:30:31;;;;;;;14.60;3.30;;;7.20;85.20;;;;;;5052605;28;20881;-74
2023/01/10 12:33:01;;;;;;;16.55;3.00;;;7.20;85.00;;;;;;5044260;28;20111;-75
2023/01/10 12:35:38;;;;;;;16.88;3.40;;;7.20;84.70;;;;;;5029360;28;20049;-75
2023/01/10 12:38:19;;;;;;;16.27;3.42;;;7.20;84.10;;;;;;5047318;28;20081;-77
2023/01/10 12:40:52;;;;;;;10.30;3.15;;;7.20;84.10;;;;;;5046511;28;20046;-75
2023/01/10 12:46:22;;;;;;;16.02;3.17;;;7.20;84.20;;;;;;5066948;28;20045;-76
2023/01/10 12:48:56;;;;;;;20.15;3.97;;;7.10;84.30;;;;;;5068295;28;20128;-76
2023/01/10 12:51:28;;;;;;;19.15;4.30;;;7.20;84.20;;;;;;5068663;28;20135;-76
2023/01/10 12:54:00;;;;;;;18.70;4.50;;;7.20;84.10;;;;;;5048037;28;20184;-75
2023/01/10 12:56:29;;;;;;;16.67;3.43;;;7.20;83.90;;;;;;5045679;28;20491;-75
2023/01/10 12:58:59;;;;;;;14.80;3.92;;;7.20;83.80;;;;;;5045179;28;20054;-75
2023/01/10 13:01:31;;;;;;;16.88;3.95;;;7.10;84.00;;;;;;5045559;28;20523;-75
2023/01/10 13:04:02;;;;;;;21.88;4.30;;;7.10;84.10;;;;;;5045831;28;20053;-75
2023/01/10 13:06:32;;;;;;;16.70;3.63;;;7.00;84.20;;;;;;5029239;28;20151;-75
2023/01/10 13:09:05;;;;;;;13.80;2.70;;;7.00;84.20;;;;;;5046524;28;20609;-76
2023/01/10 13:11:40;;;;;;;15.15;3.17;;;7.10;84.10;;;;;;5045335;28;20614;-76
2023/01/10 13:14:12;;;;;;;19.10;3.60;;;7.00;84.30;;;;;;5047119;28;20049;-76
2023/01/10 13:16:45;;;;;;;22.27;4.00;;;7.00;84.30;;;;;;5030476;28;20060;-76
2023/01/10 13:19:25;;;;;;;17.90;3.70;;;7.00;84.50;;;;;;5047907;28;20718;-76